Time;durP1;ratioP1;P1;durP2;ratioP2;P2;SDS_P1;SDS_P2;PMS_P1;PMS_P2;Temp;Humidity;BMP_temperature;BMP_pressure;BME280_temperature;BME280_humidity;BME280_pressure;Samples;Min_cycle;Max_cycle;Signal;HPM_P1;HPM_P2
2023/12/26 00:02:17;;;;;;;0.60;0.60;;;;;;;10.51;63.57;99251.34;10519923;28;20052;-65
2023/12/26 00:07:19;;;;;;;0.20;0.20;;;;;;;10.44;63.76;99248.31;10519616;28;20143;-65
2023/12/26 00:12:24;;;;;;;0.20;0.20;;;;;;;10.46;63.87;99253.47;10519536;28;20054;-65
2023/12/26 00:17:26;;;;;;;0.30;0.30;;;;;;;10.47;63.80;99240.28;10519265;28;20423;-65
2023/12/26 00:22:28;;;;;;;0.13;0.13;;;;;;;10.48;63.59;99236.69;10517313;28;20515;-65
2023/12/26 00:27:30;;;;;;;0.10;0.10;;;;;;;10.43;63.49;99233.59;10517682;28;20229;-65
2023/12/26 00:32:32;;;;;;;0.25;0.25;;;;;;;10.35;63.41;99227.22;10483543;28;20703;-65
2023/12/26 00:37:34;;;;;;;0.20;0.20;;;;;;;10.26;63.24;99230.47;10517166;28;20523;-64
2023/12/26 00:42:36;;;;;;;0.22;0.22;;;;;;;10.32;63.46;99230.03;10517478;28;20048;-65
2023/12/26 00:47:38;;;;;;;0.28;0.20;;;;;;;10.33;63.36;99236.94;10517690;28;20150;-64
2023/12/26 00:52:41;;;;;;;0.10;0.10;;;;;;;10.14;63.38;99231.31;10497755;28;20046;-64
2023/12/26 00:57:43;;;;;;;0.15;0.15;;;;;;;10.19;62.87;99232.69;10517244;28;20052;-64
2023/12/26 01:02:45;;;;;;;0.10;0.10;;;;;;;10.24;63.23;99240.19;10498806;28;20097;-65
2023/12/26 01:07:47;;;;;;;0.22;0.15;;;;;;;10.31;62.94;99241.44;10515653;28;20126;-64
2023/12/26 01:12:49;;;;;;;0.10;0.10;;;;;;;10.45;62.82;99244.78;10498663;28;20097;-64
2023/12/26 01:17:51;;;;;;;0.10;0.10;;;;;;;10.31;62.36;99249.28;10498348;28;20063;-64
2023/12/26 01:22:53;;;;;;;0.55;0.40;;;;;;;10.30;62.73;99252.81;10515893;28;20079;-64
2023/12/26 01:27:56;;;;;;;0.20;0.20;;;;;;;10.42;62.52;99251.97;10515763;28;20056;-64
2023/12/26 01:32:58;;;;;;;0.50;0.50;;;;;;;10.32;62.19;99264.84;10515303;28;20058;-64
2023/12/26 01:38:02;;;;;;;0.73;0.60;;;;;;;10.30;61.85;99271.13;10515871;28;20052;-64
2023/12/26 01:43:04;;;;;;;0.40;0.40;;;;;;;10.57;61.54;99268.38;10515386;28;20052;-64
2023/12/26 01:48:09;;;;;;;2.40;1.10;;;;;;;10.52;61.62;99266.91;10497511;28;20052;-64
2023/12/26 01:53:11;;;;;;;0.75;0.52;;;;;;;10.67;61.30;99267.63;10531069;28;20052;-64
2023/12/26 01:58:13;;;;;;;2.53;1.13;;;;;;;10.54;61.07;99266.81;10514802;28;20048;-64
2023/12/26 02:03:17;;;;;;;1.58;0.90;;;;;;;10.45;61.43;99278.75;10496854;28;20052;-64
2023/12/26 02:08:19;;;;;;;0.93;0.55;;;;;;;10.05;63.07;99305.09;10514003;28;20054;-64
2023/12/26 02:13:21;;;;;;;1.83;1.10;;;;;;;9.81;63.80;99311.97;10497821;28;20196;-64
2023/12/26 02:18:24;;;;;;;3.35;1.60;;;;;;;9.89;63.44;99304.47;10537970;27;20122;-65
2023/12/26 02:23:31;;;;;;;1.85;1.38;;;;;;;9.94;62.87;99271.03;10522713;28;20120;-65
2023/12/26 02:28:35;;;;;;;3.28;1.88;;;;;;;9.91;62.54;99266.84;10523118;28;20056;-65
2023/12/26 02:33:37;;;;;;;2.15;1.10;;;;;;;9.77;61.64;99273.94;10523357;28;20133;-65
2023/12/26 02:38:40;;;;;;;1.05;0.80;;;;;;;9.95;61.68;99263.06;10538287;28;20060;-65
2023/12/26 02:43:42;;;;;;;0.88;0.80;;;;;;;9.91;60.88;99260.78;10504638;28;20059;-65
2023/12/26 02:48:44;;;;;;;1.58;1.08;;;;;;;10.00;60.54;99260.16;10522464;28;20095;-65
2023/12/26 02:53:46;;;;;;;2.22;1.17;;;;;;;9.96;60.74;99264.75;10487409;28;20048;-65
2023/12/26 02:58:48;;;;;;;1.85;1.40;;;;;;;9.75;60.00;99260.97;10503773;28;20047;-65
2023/12/26 03:03:50;;;;;;;1.73;0.70;;;;;;;9.94;60.27;99263.19;10501536;28;20052;-65
2023/12/26 03:08:52;;;;;;;0.45;0.45;;;;;;;9.96;59.62;99285.66;10521353;28;20044;-66
2023/12/26 03:13:54;;;;;;;1.35;0.80;;;;;;;9.91;59.97;99268.63;10521177;28;20056;-65
2023/12/26 03:18:56;;;;;;;3.03;1.10;;;;;;;10.12;59.95;99281.06;10521130;28;20052;-65
2023/12/26 03:23:58;;;;;;;1.45;1.10;;;;;;;10.01;60.05;99290.59;10519767;28;20062;-65
2023/12/26 03:29:00;;;;;;;1.60;0.85;;;;;;;9.92;60.02;99289.41;10502646;28;20040;-65
2023/12/26 03:34:07;;;;;;;3.28;0.90;;;;;;;10.08;59.37;99281.38;10501154;28;20055;-65
2023/12/26 03:39:09;;;;;;;1.80;0.80;;;;;;;9.97;60.19;99291.72;10519458;28;20851;-65
2023/12/26 03:44:11;;;;;;;3.40;1.02;;;;;;;9.94;60.01;99291.91;10519586;28;20488;-65
2023/12/26 03:49:13;;;;;;;1.90;0.80;;;;;;;9.95;60.26;99288.38;10502079;28;20047;-65
2023/12/26 03:54:16;;;;;;;0.75;0.75;;;;;;;9.94;60.36;99295.38;10535263;27;20089;-65
2023/12/26 03:59:18;;;;;;;2.08;0.77;;;;;;;9.94;60.54;99290.16;10519664;28;20047;-64
2023/12/26 04:04:20;;;;;;;2.38;0.50;;;;;;;9.99;60.12;99300.28;10500097;28;20036;-65
2023/12/26 04:09:23;;;;;;;0.98;0.88;;;;;;;9.84;60.80;99298.69;10519444;28;20063;-65
2023/12/26 04:14:25;;;;;;;4.50;1.20;;;;;;;9.88;60.32;99308.84;10495311;28;20048;-65
2023/12/26 04:19:27;;;;;;;1.45;0.75;;;;;;;9.94;60.61;99308.44;10518622;28;20048;-65
2023/12/26 04:24:29;;;;;;;1.20;0.98;;;;;;;9.96;60.84;99316.16;10516674;28;20411;-65
2023/12/26 04:29:32;;;;;;;1.42;0.90;;;;;;;9.78;61.27;99320.00;10500073;28;20041;-65
2023/12/26 04:34:34;;;;;;;0.88;0.70;;;;;;;9.82;61.34;99314.47;10517519;28;20423;-65
2023/12/26 04:39:36;;;;;;;2.38;0.70;;;;;;;9.75;61.88;99325.44;10492942;28;20597;-64
2023/12/26 04:44:40;;;;;;;1.05;0.95;;;;;;;9.59;62.97;99331.63;10483256;28;20492;-65
2023/12/26 04:49:43;;;;;;;4.60;0.90;;;;;;;9.52;63.10;99316.47;10500274;28;20054;-65
2023/12/26 04:54:45;;;;;;;1.75;0.95;;;;;;;9.52;63.62;99322.50;10498780;28;20044;-65
2023/12/26 04:59:47;;;;;;;0.88;0.73;;;;;;;9.78;62.82;99320.00;10499379;28;20511;-65
2023/12/26 05:04:49;;;;;;;1.40;0.75;;;;;;;9.67;62.97;99335.56;10498338;28;20040;-65
2023/12/26 05:09:51;;;;;;;1.50;0.90;;;;;;;9.78;62.74;99343.50;10498678;28;20051;-65
2023/12/26 05:14:53;;;;;;;4.10;1.17;;;;;;;9.86;62.34;99333.38;10516288;28;20046;-66
2023/12/26 05:19:55;;;;;;;0.80;0.80;;;;;;;9.85;62.36;99344.78;10506570;28;20643;-66
2023/12/26 05:25:10;;;;;;;6.35;0.95;;;;;;;9.90;62.41;99340.06;10491967;28;20036;-66
2023/12/26 05:30:13;;;;;;;1.85;0.80;;;;;;;9.92;62.29;99349.50;10492516;28;20090;-66
2023/12/26 05:35:16;;;;;;;0.98;0.88;;;;;;;9.94;62.29;99345.00;10492078;28;20072;-66
2023/12/26 05:40:19;;;;;;;0.68;0.60;;;;;;;9.95;62.23;99362.34;10492406;28;20131;-66
2023/12/26 05:45:21;;;;;;;2.67;0.77;;;;;;;9.84;62.58;99369.22;10508008;28;20044;-65
2023/12/26 05:50:23;;;;;;;5.88;1.42;;;;;;;9.82;62.18;99381.53;10509455;28;20460;-65
2023/12/26 05:55:25;;;;;;;1.88;0.70;;;;;;;9.90;62.12;99379.25;10502366;28;20044;-65
2023/12/26 06:00:28;;;;;;;3.70;1.10;;;;;;;9.84;62.21;99375.28;10520786;28;20040;-65
2023/12/26 06:05:30;;;;;;;1.33;1.15;;;;;;;9.93;62.14;99394.75;10497783;28;20059;-65
2023/12/26 06:10:33;;;;;;;1.65;0.70;;;;;;;9.95;62.27;99398.91;10504333;28;20040;-66
2023/12/26 06:15:35;;;;;;;2.30;0.70;;;;;;;9.97;62.00;99399.63;10502789;28;20039;-66
2023/12/26 06:20:37;;;;;;;1.17;0.77;;;;;;;9.81;62.03;99417.25;10519761;28;20040;-67
2023/12/26 06:25:40;;;;;;;3.58;0.80;;;;;;;9.78;61.99;99406.19;10520876;28;20060;-67
2023/12/26 06:30:42;;;;;;;3.47;0.82;;;;;;;9.89;62.07;99419.38;10521132;28;20101;-66
2023/12/26 06:35:45;;;;;;;1.15;0.70;;;;;;;9.91;61.94;99414.91;10502318;28;20087;-67
2023/12/26 06:40:47;;;;;;;2.42;0.63;;;;;;;9.92;62.00;99434.84;10481488;28;20424;-66
2023/12/26 06:45:49;;;;;;;3.40;0.80;;;;;;;9.92;61.66;99442.69;10518185;28;20476;-66
2023/12/26 06:50:51;;;;;;;1.73;0.65;;;;;;;9.91;61.89;99449.66;10519425;28;20052;-66
2023/12/26 06:55:53;;;;;;;2.08;0.70;;;;;;;9.94;61.86;99443.41;10518851;28;20067;-66
2023/12/26 07:00:56;;;;;;;1.85;0.98;;;;;;;9.96;61.98;99452.00;10501645;28;20058;-66
2023/12/26 07:05:58;;;;;;;1.95;1.00;;;;;;;9.90;61.85;99463.69;10494819;28;20063;-66
2023/12/26 07:11:00;;;;;;;2.22;0.68;;;;;;;10.01;61.81;99484.72;10494334;28;20039;-66
2023/12/26 07:16:02;;;;;;;0.95;0.70;;;;;;;9.96;61.86;99481.56;10512209;28;20138;-66
2023/12/26 07:21:04;;;;;;;1.33;0.85;;;;;;;9.83;62.24;99492.91;10510146;28;20059;-66
2023/12/26 07:26:06;;;;;;;1.33;0.50;;;;;;;9.85;62.73;99501.50;10510360;28;20048;-66
2023/12/26 07:31:16;;;;;;;1.20;0.63;;;;;;;9.89;62.56;99523.88;10517000;28;20046;-67
2023/12/26 07:36:18;;;;;;;0.52;0.52;;;;;;;9.98;62.31;99525.88;10520380;28;20052;-66
2023/12/26 07:41:21;;;;;;;0.85;0.60;;;;;;;9.89;62.58;99540.34;10502060;28;20475;-66
2023/12/26 07:46:24;;;;;;;0.95;0.45;;;;;;;9.94;62.56;99559.19;10520265;28;20127;-67
2023/12/26 07:51:26;;;;;;;1.65;0.80;;;;;;;9.88;62.79;99570.03;10520068;28;20040;-66
2023/12/26 07:56:28;;;;;;;2.53;0.70;;;;;;;9.70;64.88;99581.63;10519590;28;20044;-68
2023/12/26 08:01:31;;;;;;;3.70;1.00;;;;;;;9.54;65.45;99578.25;10518930;28;20052;-67
2023/12/26 08:06:33;;;;;;;2.00;1.15;;;;;;;9.25;67.76;99582.63;10518919;28;20040;-67
2023/12/26 08:11:35;;;;;;;2.88;1.25;;;;;;;9.35;66.69;99602.00;10514802;28;20076;-66
2023/12/26 08:16:37;;;;;;;0.85;0.68;;;;;;;9.46;66.76;99583.09;10519003;28;20047;-66
2023/12/26 08:21:39;;;;;;;0.60;0.60;;;;;;;9.59;65.94;99600.53;10517608;28;20047;-66
2023/12/26 08:26:41;;;;;;;0.85;0.65;;;;;;;9.60;65.82;99611.81;10518577;28;20063;-67
2023/12/26 08:31:44;;;;;;;0.88;0.70;;;;;;;9.56;66.34;99624.19;10517735;28;20086;-66
2023/12/26 08:36:46;;;;;;;0.60;0.60;;;;;;;9.54;66.46;99644.31;10517296;28;20189;-66
2023/12/26 08:41:47;;;;;;;0.75;0.60;;;;;;;9.53;66.70;99637.44;10498914;28;20063;-66
2023/12/26 08:46:50;;;;;;;0.70;0.60;;;;;;;9.62;66.40;99643.88;10516706;28;20127;-66
2023/12/26 08:51:52;;;;;;;1.98;1.20;;;;;;;9.65;66.55;99654.13;10517423;28;20048;-66
2023/12/26 08:56:54;;;;;;;2.97;0.90;;;;;;;9.82;65.83;99659.22;10482703;28;20540;-66
2023/12/26 09:01:56;;;;;;;4.82;2.15;;;;;;;9.86;65.49;99676.38;10516003;28;20511;-66
2023/12/26 09:06:59;;;;;;;1.90;0.93;;;;;;;9.64;66.63;99718.59;10517140;28;20745;-66
2023/12/26 09:12:02;;;;;;;0.50;0.50;;;;;;;9.81;66.42;99703.72;10498283;28;20130;-66
2023/12/26 09:17:04;;;;;;;0.60;0.60;;;;;;;9.95;66.06;99714.16;10516857;28;20104;-66
2023/12/26 09:22:06;;;;;;;2.30;1.50;;;;;;;10.08;65.75;99702.03;10515501;28;20067;-66
2023/12/26 09:27:08;;;;;;;3.63;2.17;;;;;;;10.05;65.48;99697.84;10531650;27;20830;-65
2023/12/26 09:32:12;;;;;;;3.15;2.08;;;;;;;10.20;65.04;99716.94;10514980;28;20044;-66
2023/12/26 09:37:14;;;;;;;2.55;1.73;;;;;;;10.33;64.75;99710.03;10515551;28;20055;-66
2023/12/26 09:42:22;;;;;;;1.33;0.82;;;;;;;10.25;63.63;99727.97;10496829;28;20075;-66
2023/12/26 09:47:25;;;;;;;0.95;0.95;;;;;;;10.20;64.12;99716.94;10515718;28;20059;-67
2023/12/26 09:52:31;;;;;;;0.82;0.57;;;;;;;10.19;63.83;99731.81;10498337;28;20882;-65
2023/12/26 09:57:34;;;;;;;0.90;0.60;;;;;;;10.04;63.53;99745.78;10515949;28;20379;-71
2023/12/26 10:02:36;;;;;;;0.93;0.65;;;;;;;10.04;63.44;99760.63;10515932;28;20141;-71
2023/12/26 10:07:38;;;;;;;0.73;0.60;;;;;;;10.02;63.40;99759.88;10514930;28;20280;-71
2023/12/26 10:12:40;;;;;;;0.82;0.50;;;;;;;10.02;63.33;99759.88;10515752;28;20416;-70
2023/12/26 10:17:45;;;;;;;1.27;0.50;;;;;;;10.15;63.09;99773.91;10508407;28;20048;-71
2023/12/26 10:22:47;;;;;;;0.90;0.68;;;;;;;10.20;62.66;99790.97;10508042;28;20135;-71
2023/12/26 10:27:57;;;;;;;0.20;0.20;;;;;;;10.55;62.15;99806.28;10506670;28;20051;-72
2023/12/26 10:33:01;;;;;;;0.50;0.50;;;;;;;10.94;61.88;99793.34;10507142;28;20044;-72
2023/12/26 10:38:08;;;;;;;0.50;0.40;;;;;;;11.15;59.69;99807.72;10509244;28;20052;-72
2023/12/26 10:43:11;;;;;;;1.30;0.55;;;;;;;11.28;59.52;99785.03;10515592;28;20415;-71
2023/12/26 10:48:15;;;;;;;0.32;0.30;;;;;;;11.29;58.92;99799.81;10514755;28;20043;-71
2023/12/26 10:53:21;;;;;;;1.08;0.50;;;;;;;11.02;58.30;99789.28;10514898;28;20798;-71
2023/12/26 10:58:29;;;;;;;0.35;0.35;;;;;;;11.04;59.00;99800.53;10514403;28;20055;-70
2023/12/26 11:03:31;;;;;;;0.38;0.38;;;;;;;10.95;58.98;99789.78;10509823;28;20051;-71
2023/12/26 11:08:33;;;;;;;0.80;0.60;;;;;;;10.97;58.15;99796.59;10529546;27;20135;-72
2023/12/26 11:13:36;;;;;;;0.50;0.50;;;;;;;11.08;57.89;99785.47;10514725;28;20040;-71
2023/12/26 11:18:38;;;;;;;0.50;0.50;;;;;;;11.20;57.74;99797.78;10511450;28;20044;-72
2023/12/26 11:23:40;;;;;;;0.50;0.50;;;;;;;11.00;56.04;99792.94;10514030;28;20636;-73
2023/12/26 11:28:45;;;;;;;2.10;0.70;;;;;;;11.13;56.84;99799.13;10513599;28;20052;-70
2023/12/26 11:33:48;;;;;;;0.85;0.80;;;;;;;10.69;55.67;99798.41;10511955;28;20072;-73
2023/12/26 11:38:50;;;;;;;1.50;0.77;;;;;;;10.56;55.90;99802.75;10511223;28;20139;-72
2023/12/26 11:43:53;;;;;;;1.38;0.38;;;;;;;10.59;56.23;99821.69;10512552;28;20058;-72
2023/12/26 11:48:55;;;;;;;2.22;0.60;;;;;;;10.77;55.93;99815.31;10511313;28;20051;-72
2023/12/26 11:53:58;;;;;;;1.02;0.75;;;;;;;10.80;55.33;99823.00;10511274;28;20048;-72
2023/12/26 11:59:00;;;;;;;1.25;0.47;;;;;;;10.88;54.77;99822.50;10510573;28;20260;-72
2023/12/26 12:04:02;;;;;;;0.75;0.65;;;;;;;10.81;54.06;99844.72;10510913;28;20044;-71
2023/12/26 12:09:05;;;;;;;2.17;0.60;;;;;;;10.59;52.75;99849.59;10510882;28;20123;-71
2023/12/26 12:14:14;;;;;;;0.52;0.47;;;;;;;10.48;52.80;99853.72;10511574;28;20047;-73
2023/12/26 12:19:17;;;;;;;3.05;0.70;;;;;;;10.23;53.01;99842.22;10504924;28;20048;-71
2023/12/26 12:24:19;;;;;;;0.45;0.45;;;;;;;10.52;53.25;99838.69;10513574;28;20147;-72
2023/12/26 12:29:21;;;;;;;0.30;0.30;;;;;;;10.53;53.33;99835.13;10495429;28;20044;-72
2023/12/26 12:34:23;;;;;;;1.45;0.95;;;;;;;10.24;51.91;99838.66;10494346;28;20048;-72
2023/12/26 12:39:25;;;;;;;2.78;0.77;;;;;;;10.43;52.53;99854.94;10512115;28;20123;-72
2023/12/26 12:44:28;;;;;;;1.33;0.85;;;;;;;10.38;52.63;99856.97;10512845;28;20062;-73
2023/12/26 12:49:30;;;;;;;0.82;0.77;;;;;;;10.26;51.79;99863.78;10484808;28;20181;-72
2023/12/26 12:54:32;;;;;;;1.05;0.68;;;;;;;10.23;52.13;99869.22;10476849;28;20043;-73
2023/12/26 12:59:35;;;;;;;2.08;0.98;;;;;;;10.33;52.25;99872.09;10506827;28;20054;-72
2023/12/26 13:04:40;;;;;;;2.15;0.95;;;;;;;10.31;51.42;99866.97;10491188;28;20394;-73
2023/12/26 13:09:43;;;;;;;0.65;0.65;;;;;;;10.32;51.79;99871.25;10510020;28;20161;-73
2023/12/26 13:14:45;;;;;;;1.08;0.60;;;;;;;10.54;52.58;99865.59;10508827;28;20040;-73
2023/12/26 13:19:47;;;;;;;0.98;0.82;;;;;;;10.52;52.49;99873.50;10507340;28;20050;-72
2023/12/26 13:24:49;;;;;;;1.75;0.82;;;;;;;10.49;51.95;99876.31;10508608;28;20091;-72
2023/12/26 13:29:51;;;;;;;1.35;0.47;;;;;;;10.38;51.05;99876.13;10501803;28;20043;-73
2023/12/26 13:34:53;;;;;;;3.67;1.10;;;;;;;10.35;51.88;99894.63;10509212;28;20048;-72
2023/12/26 13:39:56;;;;;;;3.13;0.85;;;;;;;10.04;50.94;99892.09;10506571;28;20076;-71
2023/12/26 13:44:58;;;;;;;1.20;0.95;;;;;;;10.00;51.51;99893.22;10502498;28;20052;-72
2023/12/26 13:50:00;;;;;;;1.30;0.90;;;;;;;9.86;51.88;99903.63;10501713;28;20044;-73
2023/12/26 13:55:02;;;;;;;1.55;1.30;;;;;;;9.92;51.86;99900.66;10507406;28;20494;-73
2023/12/26 14:00:05;;;;;;;1.48;0.75;;;;;;;9.89;51.91;99910.44;10486425;28;20197;-73
2023/12/26 14:05:13;;;;;;;1.35;1.25;;;;;;;9.95;52.16;99920.56;10500577;28;20097;-72
2023/12/26 14:10:15;;;;;;;4.43;1.15;;;;;;;10.00;52.29;99916.72;10505755;28;20043;-71
2023/12/26 14:15:18;;;;;;;1.45;0.55;;;;;;;10.02;52.63;99919.25;10515637;28;20407;-73
2023/12/26 14:20:20;;;;;;;4.13;1.20;;;;;;;9.90;52.91;99918.19;10507708;28;20048;-73
2023/12/26 14:25:22;;;;;;;1.65;1.05;;;;;;;9.71;52.49;99935.00;10496160;28;20629;-73
2023/12/26 14:30:24;;;;;;;7.25;1.60;;;;;;;9.81;52.75;99936.16;10478824;28;20055;-72
2023/12/26 14:35:27;;;;;;;5.63;1.42;;;;;;;9.60;52.35;99949.47;10514405;28;20047;-72
2023/12/26 14:40:29;;;;;;;2.65;0.95;;;;;;;9.79;52.72;99946.69;10512323;28;20036;-72
2023/12/26 14:45:31;;;;;;;2.67;1.15;;;;;;;9.72;52.10;99958.41;10495035;28;20044;-72
2023/12/26 14:50:33;;;;;;;3.05;0.82;;;;;;;9.76;53.05;99969.53;10512924;28;20048;-72
2023/12/26 14:55:36;;;;;;;2.63;0.80;;;;;;;9.78;53.05;99970.28;10512947;28;20139;-72
2023/12/26 15:00:39;;;;;;;2.33;1.20;;;;;;;9.76;53.63;99972.97;10512758;28;20140;-72
2023/12/26 15:05:42;;;;;;;1.70;0.80;;;;;;;9.75;53.67;99975.69;10516280;28;20097;-72
2023/12/26 15:10:44;;;;;;;0.77;0.68;;;;;;;9.65;54.10;99977.91;10513943;28;20055;-72
2023/12/26 15:15:46;;;;;;;4.50;1.08;;;;;;;9.54;54.20;99996.78;10498164;28;20163;-72
2023/12/26 15:20:48;;;;;;;3.20;1.17;;;;;;;9.51;54.40;100014.38;10515059;28;20040;-71
2023/12/26 15:25:52;;;;;;;1.23;0.80;;;;;;;9.44;54.21;100015.66;10514252;28;20048;-72
2023/12/26 15:30:57;;;;;;;4.30;1.10;;;;;;;9.43;54.34;100022.63;10514464;28;20044;-71
2023/12/26 15:35:59;;;;;;;1.02;0.82;;;;;;;9.32;54.19;100024.94;10514293;28;20063;-71
2023/12/26 15:41:01;;;;;;;5.68;1.52;;;;;;;9.25;54.46;100044.50;10510936;28;20043;-72
2023/12/26 15:46:03;;;;;;;4.53;1.10;;;;;;;9.19;54.25;100052.63;10513038;28;20109;-71
2023/12/26 15:51:05;;;;;;;1.55;1.00;;;;;;;9.07;54.15;100062.84;10513762;28;20181;-70
2023/12/26 15:56:08;;;;;;;4.00;1.20;;;;;;;9.05;54.29;100072.53;10527534;28;20421;-68
2023/12/26 16:01:16;;;;;;;1.90;0.70;;;;;;;9.01;54.22;100077.06;10512613;28;20071;-61
2023/12/26 16:06:20;;;;;;;1.80;1.20;;;;;;;8.92;53.89;100077.53;10513820;28;20078;-62
2023/12/26 16:11:22;;;;;;;4.00;1.55;;;;;;;8.83;54.01;100084.03;10512252;28;20289;-62
2023/12/26 16:16:24;;;;;;;3.15;1.05;;;;;;;8.77;54.27;100099.16;10491660;28;20070;-61
2023/12/26 16:21:26;;;;;;;3.22;1.38;;;;;;;8.60;54.61;100102.59;10509132;28;20506;-62
2023/12/26 16:26:29;;;;;;;2.17;1.00;;;;;;;8.53;54.71;100116.00;10505932;28;20044;-62
2023/12/26 16:31:32;;;;;;;4.32;1.60;;;;;;;8.35;54.66;100128.16;10504409;28;20631;-62
2023/12/26 16:36:34;;;;;;;5.35;2.10;;;;;;;8.29;54.39;100135.41;10508260;28;20059;-62
2023/12/26 16:41:36;;;;;;;5.15;2.00;;;;;;;8.24;54.23;100142.63;10489739;28;20047;-62
2023/12/26 16:46:38;;;;;;;3.35;1.67;;;;;;;8.21;53.94;100158.38;10507699;28;20051;-62
2023/12/26 16:51:53;;;;;;;4.53;2.20;;;;;;;8.18;54.13;100176.75;10474109;28;20613;-62
2023/12/26 16:56:55;;;;;;;4.47;1.95;;;;;;;8.10;54.06;100181.44;10504164;28;20058;-63
2023/12/26 17:01:58;;;;;;;2.70;1.70;;;;;;;8.07;54.02;100186.78;10488052;28;20052;-62
2023/12/26 17:07:02;;;;;;;3.53;1.70;;;;;;;7.95;53.87;100201.22;10509310;28;20606;-62
2023/12/26 17:12:04;;;;;;;4.95;2.17;;;;;;;7.98;54.00;100209.72;10507918;28;20530;-62
2023/12/26 17:17:06;;;;;;;4.43;1.45;;;;;;;7.91;53.69;100213.53;10511186;28;20044;-62
2023/12/26 17:22:10;;;;;;;2.38;1.17;;;;;;;7.85;53.98;100207.75;10514902;28;20052;-62
2023/12/26 17:27:12;;;;;;;4.45;1.45;;;;;;;7.85;54.12;100226.78;10514618;28;20048;-62
2023/12/26 17:32:14;;;;;;;4.60;1.55;;;;;;;7.96;53.75;100240.19;10516200;28;20582;-62
2023/12/26 17:37:16;;;;;;;4.45;1.83;;;;;;;7.99;53.72;100250.50;10525484;27;20064;-62
2023/12/26 17:42:18;;;;;;;3.70;1.42;;;;;;;7.93;53.88;100263.78;10510390;28;20052;-62
2023/12/26 17:47:20;;;;;;;4.32;1.80;;;;;;;7.97;53.97;100265.34;10511600;28;20044;-62
2023/12/26 17:52:22;;;;;;;4.18;1.30;;;;;;;8.01;53.77;100274.72;10509369;28;20416;-62
2023/12/26 17:57:25;;;;;;;4.03;1.92;;;;;;;8.11;53.69;100295.16;10495173;28;20076;-62
2023/12/26 18:02:27;;;;;;;5.95;2.03;;;;;;;8.14;53.81;100292.44;10511503;28;20146;-63
2023/12/26 18:07:29;;;;;;;2.33;1.20;;;;;;;8.18;53.68;100299.22;10495394;28;20101;-62
2023/12/26 18:12:31;;;;;;;3.30;1.30;;;;;;;8.11;53.68;100301.22;10511465;28;20050;-62
2023/12/26 18:17:33;;;;;;;5.15;1.55;;;;;;;7.97;54.05;100303.56;10494557;28;20491;-62
2023/12/26 18:22:35;;;;;;;2.83;1.42;;;;;;;7.83;54.37;100305.91;10511098;28;20047;-62
2023/12/26 18:27:38;;;;;;;2.72;1.20;;;;;;;7.76;54.43;100310.53;10494257;28;20054;-62
2023/12/26 18:32:41;;;;;;;2.95;1.23;;;;;;;7.74;54.50;100311.50;10512141;28;20070;-62
2023/12/26 18:37:43;;;;;;;3.40;1.40;;;;;;;7.61;54.68;100311.16;10509242;28;20076;-62
2023/12/26 18:42:45;;;;;;;5.78;1.50;;;;;;;7.74;54.68;100317.56;10492946;28;20059;-62
2023/12/26 18:47:48;;;;;;;5.00;1.52;;;;;;;7.84;54.47;100305.84;10492682;28;20132;-62
2023/12/26 18:52:50;;;;;;;5.30;1.77;;;;;;;7.84;54.49;100307.59;10511388;28;20040;-62
2023/12/26 18:57:53;;;;;;;8.82;1.75;;;;;;;7.87;54.59;100313.53;10495197;28;20052;-61
2023/12/26 19:02:55;;;;;;;3.30;1.88;;;;;;;7.91;54.49;100309.03;10520651;28;20047;-62
2023/12/26 19:07:57;;;;;;;4.25;1.48;;;;;;;7.90;54.70;100329.00;10503769;28;20115;-61
2023/12/26 19:13:00;;;;;;;3.72;1.98;;;;;;;7.84;54.70;100318.84;10520958;28;20048;-62
2023/12/26 19:18:03;;;;;;;5.65;1.83;;;;;;;7.62;54.82;100335.44;10502836;28;20526;-62
2023/12/26 19:23:06;;;;;;;3.83;1.88;;;;;;;7.35;55.06;100334.81;10486096;28;20048;-62
2023/12/26 19:28:09;;;;;;;5.38;1.50;;;;;;;7.13;55.42;100339.16;10518748;28;20506;-62
2023/12/26 19:33:11;;;;;;;2.85;1.25;;;;;;;7.10;55.62;100344.50;10517337;28;20442;-61
2023/12/26 19:38:13;;;;;;;5.53;2.22;;;;;;;7.18;55.62;100350.25;10512917;28;21267;-61
2023/12/26 19:43:16;;;;;;;4.60;2.15;;;;;;;7.20;55.50;100348.44;10516577;28;20056;-61
2023/12/26 19:48:18;;;;;;;5.93;1.65;;;;;;;7.20;55.44;100351.84;10517600;28;20048;-62
2023/12/26 19:53:21;;;;;;;5.40;2.10;;;;;;;7.16;55.80;100357.25;10515708;28;20130;-62
2023/12/26 19:58:23;;;;;;;3.75;1.25;;;;;;;7.25;55.65;100369.03;10517241;28;20043;-62
2023/12/26 20:03:25;;;;;;;3.08;1.60;;;;;;;7.29;55.57;100375.81;10515709;28;20410;-61
2023/12/26 20:08:28;;;;;;;3.35;1.40;;;;;;;7.26;56.13;100388.97;10516221;28;20880;-61
2023/12/26 20:13:30;;;;;;;3.53;1.88;;;;;;;7.23;56.13;100384.72;10518032;28;20403;-61
2023/12/26 20:18:32;;;;;;;3.08;1.38;;;;;;;7.21;56.06;100394.34;10496811;28;20547;-62
2023/12/26 20:23:35;;;;;;;3.90;1.90;;;;;;;7.24;56.15;100399.44;10515219;28;20059;-62
2023/12/26 20:28:37;;;;;;;2.72;1.30;;;;;;;7.31;55.99;100405.22;10515231;28;20050;-62
2023/12/26 20:33:39;;;;;;;7.63;1.80;;;;;;;7.32;55.77;100418.19;10514757;28;20051;-62
2023/12/26 20:38:41;;;;;;;6.22;1.88;;;;;;;7.32;55.92;100427.75;10516088;28;20059;-62
2023/12/26 20:43:43;;;;;;;3.30;1.98;;;;;;;7.34;56.02;100431.13;10515677;28;20059;-62
2023/12/26 20:48:45;;;;;;;3.70;1.40;;;;;;;7.43;55.75;100431.63;10515631;28;20048;-61
2023/12/26 20:53:48;;;;;;;5.78;1.35;;;;;;;7.41;55.79;100423.03;10497603;28;20586;-62
2023/12/26 20:58:51;;;;;;;4.60;2.15;;;;;;;7.13;56.31;100428.44;10515118;28;20085;-63
2023/12/26 21:03:53;;;;;;;5.07;2.00;;;;;;;6.87;56.90;100431.19;10513972;28;20515;-62
2023/12/26 21:08:56;;;;;;;4.60;2.55;;;;;;;6.67;57.49;100445.78;10514990;28;20135;-62
2023/12/26 21:13:58;;;;;;;4.90;1.83;;;;;;;6.65;57.89;100443.25;10497905;28;20058;-62
2023/12/26 21:19:00;;;;;;;3.55;1.70;;;;;;;6.65;58.09;100445.00;10512078;28;20507;-63
2023/12/26 21:24:02;;;;;;;4.95;2.03;;;;;;;6.62;58.39;100445.09;10493549;28;20127;-63
2023/12/26 21:29:04;;;;;;;3.78;1.40;;;;;;;6.57;58.26;100447.03;10513913;28;20044;-62
2023/12/26 21:34:06;;;;;;;2.97;1.23;;;;;;;6.50;58.34;100453.31;10514169;28;20468;-63
2023/12/26 21:39:09;;;;;;;3.80;1.20;;;;;;;6.44;58.52;100458.72;10508793;28;20044;-63
2023/12/26 21:44:13;;;;;;;3.95;2.33;;;;;;;6.40;58.65;100459.75;10511159;28;20138;-62
2023/12/26 21:49:15;;;;;;;10.57;1.52;;;;;;;6.25;58.76;100454.16;10510558;28;20035;-62
2023/12/26 21:54:17;;;;;;;6.18;1.75;;;;;;;6.14;59.04;100452.81;10495428;28;20043;-62
2023/12/26 21:59:20;;;;;;;3.67;1.67;;;;;;;6.01;59.26;100465.34;10510061;28;20040;-62
2023/12/26 22:04:22;;;;;;;4.45;1.65;;;;;;;5.86;58.95;100460.63;10511667;28;20159;-62
2023/12/26 22:09:24;;;;;;;4.38;1.50;;;;;;;5.68;59.37;100458.63;10512486;28;20050;-62
2023/12/26 22:14:26;;;;;;;4.20;1.98;;;;;;;5.60;59.75;100462.34;10512925;28;20050;-62
2023/12/26 22:19:28;;;;;;;5.63;2.28;;;;;;;5.51;60.11;100466.94;10509081;28;20036;-63
2023/12/26 22:24:31;;;;;;;5.50;1.90;;;;;;;5.46;60.30;100473.16;10490040;28;20048;-62
2023/12/26 22:29:33;;;;;;;3.83;1.65;;;;;;;5.42;60.53;100487.13;10510803;28;20060;-62
2023/12/26 22:34:35;;;;;;;5.30;1.60;;;;;;;5.31;60.88;100478.81;10515352;28;20047;-62
2023/12/26 22:39:40;;;;;;;5.65;2.72;;;;;;;5.09;61.30;100469.94;10518121;28;20051;-62
2023/12/26 22:44:42;;;;;;;5.13;2.10;;;;;;;4.96;61.57;100489.34;10502903;28;20213;-62
2023/12/26 22:49:44;;;;;;;2.35;1.40;;;;;;;4.86;61.76;100496.50;10484254;28;20040;-62
2023/12/26 22:54:46;;;;;;;5.35;1.60;;;;;;;4.73;61.84;100489.97;10518903;28;20044;-62
2023/12/26 22:59:48;;;;;;;3.83;1.40;;;;;;;4.63;62.29;100491.97;10489078;28;20051;-62
2023/12/26 23:04:50;;;;;;;4.53;1.33;;;;;;;4.66;62.15;100506.56;10516305;28;20131;-62
2023/12/26 23:09:52;;;;;;;5.28;1.67;;;;;;;4.57;63.29;100515.44;10491035;28;20039;-62
2023/12/26 23:14:54;;;;;;;5.07;1.80;;;;;;;4.64;62.75;100493.66;10519275;28;20048;-62
2023/12/26 23:19:56;;;;;;;7.13;1.75;;;;;;;4.67;62.67;100492.72;10518703;28;20052;-62
2023/12/26 23:25:01;;;;;;;5.40;1.70;;;;;;;4.51;62.58;100502.66;10519453;28;20401;-62
2023/12/26 23:30:04;;;;;;;3.65;1.50;;;;;;;4.60;62.79;100498.97;10498047;28;20503;-62
2023/12/26 23:35:07;;;;;;;2.97;1.80;;;;;;;4.69;62.86;100493.53;10513515;28;20050;-62